Nearby METAR Reports

 

KAIK - Aiken, South Carolina, USA
Distance from station: NE 8mi, 13km
Updated: Sun, 20-Jun-2021 16:55 EDT
Overcast
Overcast
 Wind from SSW
Wind: SSW 17 km/h, Gust: 31 km/h
Temperature: 75°F , 24°C
Dew Point: 73°F , 23°C
Humidity: 94%
Barometer: 29.82 inHg , 1009.8 hPa
Clouds: Overcast
Visibility: 16 km
Cloud details: Mostly cloudy 900 ft
Mostly cloudy 1200 ft
Overcast 2200 ft
2021/06/20 20:55 KAIK 202055Z AUTO 21009G17KT 10SM BKN009 BKN012 OVC022 24/23 A2982 RMK AO2 P0012 T02430226 60045
KDNL - Augusta/Daniel, Georgia, USA
Distance from station: WSW 16mi, 26km
Updated: Sun, 20-Jun-2021 16:53 EDT
Light rain, Mostly cloudy
Light rain, Mostly cloudy
 Wind from SW
Wind: SW 19 km/h
Temperature: 79°F , 26°C
Dew Point: 73°F , 23°C
Humidity: 84%
Barometer: 29.81 inHg , 1009.5 hPa
Summary: Light rain
Clouds: Mostly cloudy
Visibility: 16 km
Cloud details: Partly cloudy 900 ft
Mostly cloudy 1400 ft
Mostly cloudy 2500 ft
2021/06/20 20:53 KDNL 202053Z AUTO 22010KT 10SM -RA SCT009 BKN014 BKN025 26/23 A2981 RMK AO2 RAE1957B13E27B46 SLP089 P0000 60002 T02560228 57002
 
KAGS - Augusta/Bush, Georgia, USA
Distance from station: SW 18mi, 28km
Updated: Sun, 20-Jun-2021 16:53 EDT
Light rain, Mist, Overcast
Light rain, Mist, Overcast
 Wind from SW
Wind: SW 17 km/h
Temperature: 75°F , 24°C
Dew Point: 73°F , 23°C
Humidity: 94%
Barometer: 29.80 inHg , 1009.1 hPa
Summary: Light rain, Mist
Clouds: Overcast
Visibility: 3 km
Cloud details: Mostly cloudy 1000 ft
Mostly cloudy 1900 ft
Overcast 2600 ft
2021/06/20 20:53 KAGS 202053Z 22009KT 2SM -RA BR BKN010 BKN019 OVC026 24/23 A2980 RMK AO2 RAB1954E07B15 SLP087 P0004 60056 T02440228 56008
KBNL - Barnwell, South Carolina, USA
Distance from station: SE 33mi, 52km
Updated: Sun, 20-Jun-2021 16:55 EDT
Mostly cloudy
Mostly cloudy
 Wind from SSW
Wind: SSW 19 km/h
Temperature: 73°F , 23°C
Dew Point: 72°F , 22°C
Humidity: 94%
Clouds: Mostly cloudy
Visibility: 11 km
Cloud details: Few Clouds 800 ft
Mostly cloudy 1200 ft
Mostly cloudy 1600 ft
2021/06/20 20:55 KBNL 202055Z AUTO 21010KT 7SM FEW008 BKN012 BKN016 23/22 RMK AO2 P0007
 
KXNO - North Af Auxfld, South Carolina, USA
Distance from station: E 41mi, 66km
Updated: Sun, 20-Jun-2021 13:56 EDT
NOT Current
Mostly cloudy
Mostly cloudy
 Wind from S
Wind: S 22 km/h, Gust: 35 km/h
Temperature: 84°F , 29°C
Heat Index: 103°F , 39°C
Dew Point: 84°F , 29°C
Humidity: 100%
Barometer: 29.86 inHg , 1011.2 hPa
Clouds: Mostly cloudy
Visibility: 16 km
Cloud details: Mostly cloudy 3400 ft
Mostly cloudy 15000 ft
2021/06/20 17:56 KXNO 201756Z AUTO 17012G19KT 10SM BKN034 BKN150 29/29 A2986 RMK AO2 RAE1659 SLP111 P0000 60000 T02890288 10292 20239 57017 $
KHQU - Mcduffie/Thomson, Georgia, USA
Distance from station: W 42mi, 68km
Updated: Sun, 20-Jun-2021 16:55 EDT
Overcast
Overcast
 Wind from WSW
Wind: WSW 15 km/h
Temperature: 79°F , 26°C
Dew Point: 72°F , 22°C
Humidity: 79%
Barometer: 29.81 inHg , 1009.5 hPa
Clouds: Overcast
Visibility: 16 km
Cloud details: Partly cloudy 1700 ft
Overcast 2600 ft
2021/06/20 20:55 KHQU 202055Z AUTO 24008KT 10SM SCT017 OVC026 26/22 A2981 RMK AO2 T02650224 60001
 
KCAE - Columbia, South Carolina, USA
Distance from station: ENE 46mi, 74km
Updated: Sun, 20-Jun-2021 16:56 EDT
Mostly cloudy
Mostly cloudy
 Wind from S
Wind: S 11 km/h
Temperature: 75°F , 24°C
Dew Point: 72°F , 22°C
Humidity: 89%
Barometer: 29.79 inHg , 1008.8 hPa
Clouds: Mostly cloudy
Visibility: 16 km
Cloud details: Partly cloudy 5000 ft
Mostly cloudy 6000 ft
Mostly cloudy 8500 ft
2021/06/20 20:56 KCAE 202056Z 18006KT 10SM SCT050 BKN060 BKN085 24/22 A2979 RMK AO2 PK WND 21028/1957 WSHFT 1946 RAB1957E38 SLP085 P0034 60047 T02390222 56014
K2J5 - Millen, Georgia, USA
Distance from station: SSW 48mi, 77km
Updated: Sun, 20-Jun-2021 16:35 EDT
Drizzle, Mist, Overcast
Drizzle, Mist, Overcast
 Wind from SW
Wind: SW 15 km/h
Temperature: 73°F , 23°C
Dew Point: 72°F , 22°C
Humidity: 94%
Barometer: 29.84 inHg , 1010.5 hPa
Summary: Drizzle, Mist
Clouds: Overcast
Visibility: 8 km
Cloud details: Overcast 800 ft
2021/06/20 20:35 K2J5 202035Z AUTO 22008KT 5SM DZ BR OVC008 23/22 A2984 RMK AO2 T02300221
 
KAQX - Allendale, South Carolina, USA
Distance from station: SE 50mi, 80km
Updated: Sun, 20-Jun-2021 16:55 EDT
Mist, Mostly cloudy
Mist, Mostly cloudy
 Wind from SW
Wind: SW 13 km/h, Gust: 22 km/h
Temperature: 73°F , 23°C
Dew Point: 73°F , 23°C
Humidity: 100%
Barometer: 29.83 inHg , 1010.2 hPa
Summary: Mist
Clouds: Mostly cloudy
Visibility: 6 km
Cloud details: Partly cloudy 1400 ft
Mostly cloudy 3600 ft
Mostly cloudy 4200 ft
2021/06/20 20:55 KAQX 202055Z AUTO 22007G12KT 180V250 4SM BR SCT014 BKN036 BKN042 23/23 A2983 RMK AO2